sensor_id;sensor_type;location;lat;lon;timestamp;P1;durP1;ratioP1;P2;durP2;ratioP2
22774;SDS011;11554;51.106;3.684;2023-04-01T00:00:00;11.40;;;3.70;;
22774;SDS011;11554;51.106;3.684;2023-04-01T00:05:00;11.40;;;3.70;;
22774;SDS011;11554;51.106;3.684;2023-04-01T00:10:00;8.90;;;3.50;;
22774;SDS011;11554;51.106;3.684;2023-04-01T00:15:01;8.90;;;3.50;;
22774;SDS011;11554;51.106;3.684;2023-04-01T00:20:00;10.70;;;3.00;;
22774;SDS011;11554;51.106;3.684;2023-04-01T00:25:00;10.70;;;3.00;;
22774;SDS011;11554;51.106;3.684;2023-04-01T00:30:00;9.30;;;2.80;;
22774;SDS011;11554;51.106;3.684;2023-04-01T00:35:00;9.30;;;2.80;;
22774;SDS011;11554;51.106;3.684;2023-04-01T00:40:01;7.70;;;2.40;;
22774;SDS011;11554;51.106;3.684;2023-04-01T00:50:00;8.20;;;2.00;;
22774;SDS011;11554;51.106;3.684;2023-04-01T00:55:02;8.20;;;2.00;;
22774;SDS011;11554;51.106;3.684;2023-04-01T01:00:00;8.40;;;2.50;;
22774;SDS011;11554;51.106;3.684;2023-04-01T01:05:00;8.40;;;2.50;;
22774;SDS011;11554;51.106;3.684;2023-04-01T01:10:07;8.90;;;2.10;;
22774;SDS011;11554;51.106;3.684;2023-04-01T01:15:08;8.90;;;2.10;;
22774;SDS011;11554;51.106;3.684;2023-04-01T01:25:13;8.00;;;2.10;;
22774;SDS011;11554;51.106;3.684;2023-04-01T01:30:13;3.50;;;1.10;;
22774;SDS011;11554;51.106;3.684;2023-04-01T01:35:14;3.50;;;1.10;;
22774;SDS011;11554;51.106;3.684;2023-04-01T01:40:03;8.30;;;2.60;;
22774;SDS011;11554;51.106;3.684;2023-04-01T01:45:02;8.30;;;2.60;;
22774;SDS011;11554;51.106;3.684;2023-04-01T01:50:01;15.90;;;3.10;;
22774;SDS011;11554;51.106;3.684;2023-04-01T01:55:00;15.90;;;3.10;;
22774;SDS011;11554;51.106;3.684;2023-04-01T02:00:07;6.00;;;1.60;;
22774;SDS011;11554;51.106;3.684;2023-04-01T02:05:01;6.00;;;1.60;;
22774;SDS011;11554;51.106;3.684;2023-04-01T02:10:00;4.00;;;1.40;;
22774;SDS011;11554;51.106;3.684;2023-04-01T02:15:03;4.00;;;1.40;;
22774;SDS011;11554;51.106;3.684;2023-04-01T02:20:03;8.50;;;2.00;;
22774;SDS011;11554;51.106;3.684;2023-04-01T02:25:04;8.50;;;2.00;;
22774;SDS011;11554;51.106;3.684;2023-04-01T02:30:00;6.70;;;2.00;;
22774;SDS011;11554;51.106;3.684;2023-04-01T02:35:00;6.70;;;2.00;;
22774;SDS011;11554;51.106;3.684;2023-04-01T02:40:01;5.40;;;1.70;;
22774;SDS011;11554;51.106;3.684;2023-04-01T02:45:00;5.40;;;1.70;;
22774;SDS011;11554;51.106;3.684;2023-04-01T02:50:00;9.30;;;2.40;;
22774;SDS011;11554;51.106;3.684;2023-04-01T02:55:01;9.30;;;2.40;;
22774;SDS011;11554;51.106;3.684;2023-04-01T03:00:00;7.40;;;2.20;;
22774;SDS011;11554;51.106;3.684;2023-04-01T03:05:00;7.40;;;2.20;;
22774;SDS011;11554;51.106;3.684;2023-04-01T03:10:00;9.50;;;2.70;;
22774;SDS011;11554;51.106;3.684;2023-04-01T03:15:00;9.50;;;2.70;;
22774;SDS011;11554;51.106;3.684;2023-04-01T03:20:00;6.90;;;2.50;;
22774;SDS011;11554;51.106;3.684;2023-04-01T03:25:00;6.90;;;2.50;;
22774;SDS011;11554;51.106;3.684;2023-04-01T03:30:00;5.40;;;1.60;;
22774;SDS011;11554;51.106;3.684;2023-04-01T03:35:00;5.40;;;1.60;;
22774;SDS011;11554;51.106;3.684;2023-04-01T03:40:00;4.70;;;1.90;;
22774;SDS011;11554;51.106;3.684;2023-04-01T03:45:00;4.70;;;1.90;;
22774;SDS011;11554;51.106;3.684;2023-04-01T03:50:00;4.50;;;2.00;;
22774;SDS011;11554;51.106;3.684;2023-04-01T03:55:00;4.50;;;2.00;;
22774;SDS011;11554;51.106;3.684;2023-04-01T04:00:00;4.00;;;1.80;;
22774;SDS011;11554;51.106;3.684;2023-04-01T04:05:00;4.00;;;1.80;;
22774;SDS011;11554;51.106;3.684;2023-04-01T04:10:00;4.70;;;1.90;;
22774;SDS011;11554;51.106;3.684;2023-04-01T04:15:00;4.70;;;1.90;;
22774;SDS011;11554;51.106;3.684;2023-04-01T04:20:00;4.90;;;2.40;;
22774;SDS011;11554;51.106;3.684;2023-04-01T04:25:00;4.90;;;2.40;;
22774;SDS011;11554;51.106;3.684;2023-04-01T04:30:00;3.60;;;1.80;;
22774;SDS011;11554;51.106;3.684;2023-04-01T04:35:00;3.60;;;1.80;;
22774;SDS011;11554;51.106;3.684;2023-04-01T04:40:00;3.90;;;1.90;;
22774;SDS011;11554;51.106;3.684;2023-04-01T04:45:00;3.90;;;1.90;;
22774;SDS011;11554;51.106;3.684;2023-04-01T04:50:00;6.00;;;2.10;;
22774;SDS011;11554;51.106;3.684;2023-04-01T04:55:00;6.00;;;2.10;;
22774;SDS011;11554;51.106;3.684;2023-04-01T05:00:00;3.90;;;2.20;;
22774;SDS011;11554;51.106;3.684;2023-04-01T05:05:00;3.90;;;2.20;;
22774;SDS011;11554;51.106;3.684;2023-04-01T05:10:00;6.40;;;2.60;;
22774;SDS011;11554;51.106;3.684;2023-04-01T05:15:00;6.40;;;2.60;;
22774;SDS011;11554;51.106;3.684;2023-04-01T05:20:00;3.30;;;1.80;;
22774;SDS011;11554;51.106;3.684;2023-04-01T05:25:00;3.30;;;1.80;;
22774;SDS011;11554;51.106;3.684;2023-04-01T05:30:01;6.20;;;2.90;;
22774;SDS011;11554;51.106;3.684;2023-04-01T05:35:00;6.20;;;2.90;;
22774;SDS011;11554;51.106;3.684;2023-04-01T05:40:00;2.60;;;1.30;;
22774;SDS011;11554;51.106;3.684;2023-04-01T05:45:00;2.60;;;1.30;;
22774;SDS011;11554;51.106;3.684;2023-04-01T05:50:00;3.20;;;1.50;;
22774;SDS011;11554;51.106;3.684;2023-04-01T05:55:00;3.20;;;1.50;;
22774;SDS011;11554;51.106;3.684;2023-04-01T06:00:00;4.00;;;1.30;;
22774;SDS011;11554;51.106;3.684;2023-04-01T06:05:18;4.00;;;1.30;;
22774;SDS011;11554;51.106;3.684;2023-04-01T06:10:00;3.10;;;1.10;;
22774;SDS011;11554;51.106;3.684;2023-04-01T06:15:11;3.10;;;1.10;;
22774;SDS011;11554;51.106;3.684;2023-04-01T06:20:07;3.30;;;0.80;;
22774;SDS011;11554;51.106;3.684;2023-04-01T06:25:15;3.30;;;0.80;;
22774;SDS011;11554;51.106;3.684;2023-04-01T06:30:07;3.50;;;1.00;;
22774;SDS011;11554;51.106;3.684;2023-04-01T06:35:13;3.50;;;1.00;;
22774;SDS011;11554;51.106;3.684;2023-04-01T06:40:12;2.90;;;1.00;;
22774;SDS011;11554;51.106;3.684;2023-04-01T06:45:08;2.90;;;1.00;;
22774;SDS011;11554;51.106;3.684;2023-04-01T06:50:05;1.90;;;0.80;;
22774;SDS011;11554;51.106;3.684;2023-04-01T06:55:04;1.90;;;0.80;;
22774;SDS011;11554;51.106;3.684;2023-04-01T07:00:05;2.40;;;0.70;;
22774;SDS011;11554;51.106;3.684;2023-04-01T07:05:00;2.40;;;0.70;;
22774;SDS011;11554;51.106;3.684;2023-04-01T07:10:05;2.00;;;0.60;;
22774;SDS011;11554;51.106;3.684;2023-04-01T07:15:05;2.00;;;0.60;;
22774;SDS011;11554;51.106;3.684;2023-04-01T07:20:04;1.80;;;0.70;;
22774;SDS011;11554;51.106;3.684;2023-04-01T07:25:05;1.80;;;0.70;;
22774;SDS011;11554;51.106;3.684;2023-04-01T07:30:01;2.10;;;0.90;;
22774;SDS011;11554;51.106;3.684;2023-04-01T07:35:09;2.10;;;0.90;;
22774;SDS011;11554;51.106;3.684;2023-04-01T07:40:13;3.40;;;0.70;;
22774;SDS011;11554;51.106;3.684;2023-04-01T07:45:07;3.40;;;0.70;;
22774;SDS011;11554;51.106;3.684;2023-04-01T07:50:09;2.80;;;0.70;;
22774;SDS011;11554;51.106;3.684;2023-04-01T07:55:07;2.80;;;0.70;;
22774;SDS011;11554;51.106;3.684;2023-04-01T08:00:04;2.20;;;0.80;;
22774;SDS011;11554;51.106;3.684;2023-04-01T08:05:05;2.20;;;0.80;;
22774;SDS011;11554;51.106;3.684;2023-04-01T08:10:07;4.40;;;1.00;;
22774;SDS011;11554;51.106;3.684;2023-04-01T08:15:09;4.40;;;1.00;;
22774;SDS011;11554;51.106;3.684;2023-04-01T08:20:12;4.70;;;1.50;;
22774;SDS011;11554;51.106;3.684;2023-04-01T08:25:04;4.70;;;1.50;;
22774;SDS011;11554;51.106;3.684;2023-04-01T08:30:04;6.60;;;1.60;;
22774;SDS011;11554;51.106;3.684;2023-04-01T08:35:07;6.60;;;1.60;;
22774;SDS011;11554;51.106;3.684;2023-04-01T08:40:11;6.30;;;1.90;;
22774;SDS011;11554;51.106;3.684;2023-04-01T08:45:14;6.30;;;1.90;;
22774;SDS011;11554;51.106;3.684;2023-04-01T08:55:18;3.40;;;0.80;;
22774;SDS011;11554;51.106;3.684;2023-04-01T09:00:13;4.60;;;1.30;;
22774;SDS011;11554;51.106;3.684;2023-04-01T09:05:21;4.60;;;1.30;;
22774;SDS011;11554;51.106;3.684;2023-04-01T09:10:17;5.30;;;1.10;;
22774;SDS011;11554;51.106;3.684;2023-04-01T09:20:19;5.10;;;1.10;;
22774;SDS011;11554;51.106;3.684;2023-04-01T09:30:19;1.70;;;0.60;;
22774;SDS011;11554;51.106;3.684;2023-04-01T09:35:14;1.70;;;0.60;;
22774;SDS011;11554;51.106;3.684;2023-04-01T09:40:15;2.20;;;0.60;;
22774;SDS011;11554;51.106;3.684;2023-04-01T09:45:05;2.20;;;0.60;;
22774;SDS011;11554;51.106;3.684;2023-04-01T09:50:17;2.50;;;0.80;;
22774;SDS011;11554;51.106;3.684;2023-04-01T09:55:16;2.50;;;0.80;;
22774;SDS011;11554;51.106;3.684;2023-04-01T10:00:15;2.10;;;0.70;;
22774;SDS011;11554;51.106;3.684;2023-04-01T10:05:17;2.10;;;0.70;;
22774;SDS011;11554;51.106;3.684;2023-04-01T10:20:12;1.10;;;0.40;;
22774;SDS011;11554;51.106;3.684;2023-04-01T10:25:18;1.10;;;0.40;;
22774;SDS011;11554;51.106;3.684;2023-04-01T10:35:16;1.90;;;0.40;;
22774;SDS011;11554;51.106;3.684;2023-04-01T10:40:20;1.50;;;0.40;;
22774;SDS011;11554;51.106;3.684;2023-04-01T10:45:21;1.50;;;0.40;;
22774;SDS011;11554;51.106;3.684;2023-04-01T10:55:15;2.10;;;0.40;;
22774;SDS011;11554;51.106;3.684;2023-04-01T11:10:17;2.80;;;0.70;;
22774;SDS011;11554;51.106;3.684;2023-04-01T11:15:16;2.80;;;0.70;;
22774;SDS011;11554;51.106;3.684;2023-04-01T11:25:16;3.90;;;1.00;;
22774;SDS011;11554;51.106;3.684;2023-04-01T11:30:10;3.80;;;1.30;;
22774;SDS011;11554;51.106;3.684;2023-04-01T11:35:22;3.80;;;1.30;;
22774;SDS011;11554;51.106;3.684;2023-04-01T11:40:11;4.20;;;1.20;;
22774;SDS011;11554;51.106;3.684;2023-04-01T11:45:10;4.20;;;1.20;;
22774;SDS011;11554;51.106;3.684;2023-04-01T11:50:14;3.70;;;1.20;;
22774;SDS011;11554;51.106;3.684;2023-04-01T11:55:10;3.70;;;1.20;;
22774;SDS011;11554;51.106;3.684;2023-04-01T12:00:15;3.90;;;1.30;;
22774;SDS011;11554;51.106;3.684;2023-04-01T12:10:10;5.60;;;1.60;;
22774;SDS011;11554;51.106;3.684;2023-04-01T12:15:11;5.60;;;1.60;;
22774;SDS011;11554;51.106;3.684;2023-04-01T12:20:16;3.20;;;1.00;;
22774;SDS011;11554;51.106;3.684;2023-04-01T12:25:16;3.20;;;1.00;;
22774;SDS011;11554;51.106;3.684;2023-04-01T12:30:14;3.20;;;1.40;;
22774;SDS011;11554;51.106;3.684;2023-04-01T12:35:15;3.20;;;1.40;;
22774;SDS011;11554;51.106;3.684;2023-04-01T12:40:14;1.90;;;0.70;;
22774;SDS011;11554;51.106;3.684;2023-04-01T12:45:13;1.90;;;0.70;;
22774;SDS011;11554;51.106;3.684;2023-04-01T12:55:12;2.90;;;0.80;;
22774;SDS011;11554;51.106;3.684;2023-04-01T13:00:12;2.50;;;0.50;;
22774;SDS011;11554;51.106;3.684;2023-04-01T13:05:15;2.50;;;0.50;;
22774;SDS011;11554;51.106;3.684;2023-04-01T13:10:06;1.90;;;0.60;;
22774;SDS011;11554;51.106;3.684;2023-04-01T13:15:13;1.90;;;0.60;;
22774;SDS011;11554;51.106;3.684;2023-04-01T13:20:06;3.10;;;0.90;;
22774;SDS011;11554;51.106;3.684;2023-04-01T13:25:06;3.10;;;0.90;;
22774;SDS011;11554;51.106;3.684;2023-04-01T13:30:16;3.60;;;0.90;;
22774;SDS011;11554;51.106;3.684;2023-04-01T13:35:10;3.60;;;0.90;;
22774;SDS011;11554;51.106;3.684;2023-04-01T13:40:17;2.10;;;0.60;;
22774;SDS011;11554;51.106;3.684;2023-04-01T13:45:02;2.10;;;0.60;;
22774;SDS011;11554;51.106;3.684;2023-04-01T13:50:08;2.20;;;0.40;;
22774;SDS011;11554;51.106;3.684;2023-04-01T13:55:14;2.20;;;0.40;;
22774;SDS011;11554;51.106;3.684;2023-04-01T14:00:11;2.70;;;0.90;;
22774;SDS011;11554;51.106;3.684;2023-04-01T14:05:15;2.70;;;0.90;;
22774;SDS011;11554;51.106;3.684;2023-04-01T14:10:07;1.80;;;0.50;;
22774;SDS011;11554;51.106;3.684;2023-04-01T14:15:11;1.80;;;0.50;;
22774;SDS011;11554;51.106;3.684;2023-04-01T14:20:14;3.00;;;0.50;;
22774;SDS011;11554;51.106;3.684;2023-04-01T14:25:20;3.00;;;0.50;;
22774;SDS011;11554;51.106;3.684;2023-04-01T14:30:14;1.60;;;0.60;;
22774;SDS011;11554;51.106;3.684;2023-04-01T14:35:17;1.60;;;0.60;;
22774;SDS011;11554;51.106;3.684;2023-04-01T14:40:16;2.20;;;0.70;;
22774;SDS011;11554;51.106;3.684;2023-04-01T14:45:20;2.20;;;0.70;;
22774;SDS011;11554;51.106;3.684;2023-04-01T14:50:07;2.60;;;0.70;;
22774;SDS011;11554;51.106;3.684;2023-04-01T14:55:01;2.60;;;0.70;;
22774;SDS011;11554;51.106;3.684;2023-04-01T15:00:12;1.60;;;0.60;;
22774;SDS011;11554;51.106;3.684;2023-04-01T15:05:10;1.60;;;0.60;;
22774;SDS011;11554;51.106;3.684;2023-04-01T15:10:08;2.80;;;0.90;;
22774;SDS011;11554;51.106;3.684;2023-04-01T15:15:12;2.80;;;0.90;;
22774;SDS011;11554;51.106;3.684;2023-04-01T15:20:13;5.10;;;1.10;;
22774;SDS011;11554;51.106;3.684;2023-04-01T15:25:16;5.10;;;1.10;;
22774;SDS011;11554;51.106;3.684;2023-04-01T15:30:18;3.50;;;0.80;;
22774;SDS011;11554;51.106;3.684;2023-04-01T15:35:13;3.50;;;0.80;;
22774;SDS011;11554;51.106;3.684;2023-04-01T15:40:11;2.50;;;0.70;;
22774;SDS011;11554;51.106;3.684;2023-04-01T15:45:11;2.50;;;0.70;;
22774;SDS011;11554;51.106;3.684;2023-04-01T15:55:13;3.00;;;0.80;;
22774;SDS011;11554;51.106;3.684;2023-04-01T16:00:19;4.00;;;0.90;;
22774;SDS011;11554;51.106;3.684;2023-04-01T16:05:05;4.00;;;0.90;;
22774;SDS011;11554;51.106;3.684;2023-04-01T16:10:17;3.80;;;0.80;;
22774;SDS011;11554;51.106;3.684;2023-04-01T16:15:11;3.80;;;0.80;;
22774;SDS011;11554;51.106;3.684;2023-04-01T16:20:02;3.30;;;0.80;;
22774;SDS011;11554;51.106;3.684;2023-04-01T16:25:14;4.00;;;1.00;;
22774;SDS011;11554;51.106;3.684;2023-04-01T16:30:03;4.00;;;1.00;;
22774;SDS011;11554;51.106;3.684;2023-04-01T16:35:16;3.50;;;1.00;;
22774;SDS011;11554;51.106;3.684;2023-04-01T16:40:11;3.50;;;1.00;;
22774;SDS011;11554;51.106;3.684;2023-04-01T16:45:08;3.50;;;1.00;;
22774;SDS011;11554;51.106;3.684;2023-04-01T16:50:11;3.80;;;1.00;;
22774;SDS011;11554;51.106;3.684;2023-04-01T16:55:08;3.80;;;1.00;;
22774;SDS011;11554;51.106;3.684;2023-04-01T17:00:10;4.50;;;1.50;;
22774;SDS011;11554;51.106;3.684;2023-04-01T17:05:04;4.50;;;1.50;;
22774;SDS011;11554;51.106;3.684;2023-04-01T17:10:14;2.70;;;1.00;;
22774;SDS011;11554;51.106;3.684;2023-04-01T17:15:07;2.70;;;1.00;;
22774;SDS011;11554;51.106;3.684;2023-04-01T17:20:12;4.20;;;1.60;;
22774;SDS011;11554;51.106;3.684;2023-04-01T17:25:14;4.00;;;1.40;;
22774;SDS011;11554;51.106;3.684;2023-04-01T17:30:19;4.00;;;1.40;;
22774;SDS011;11554;51.106;3.684;2023-04-01T17:35:05;4.00;;;1.40;;
22774;SDS011;11554;51.106;3.684;2023-04-01T17:40:21;5.70;;;1.80;;
22774;SDS011;11554;51.106;3.684;2023-04-01T17:45:05;5.70;;;1.80;;
22774;SDS011;11554;51.106;3.684;2023-04-01T17:50:09;7.10;;;2.70;;
22774;SDS011;11554;51.106;3.684;2023-04-01T17:55:20;8.10;;;3.20;;
22774;SDS011;11554;51.106;3.684;2023-04-01T18:00:03;8.10;;;3.20;;
22774;SDS011;11554;51.106;3.684;2023-04-01T18:05:15;10.70;;;4.00;;
22774;SDS011;11554;51.106;3.684;2023-04-01T18:10:08;10.70;;;4.00;;
22774;SDS011;11554;51.106;3.684;2023-04-01T18:15:12;13.00;;;4.70;;
22774;SDS011;11554;51.106;3.684;2023-04-01T18:20:07;13.00;;;4.70;;
22774;SDS011;11554;51.106;3.684;2023-04-01T18:25:12;13.00;;;5.10;;
22774;SDS011;11554;51.106;3.684;2023-04-01T18:30:05;13.00;;;5.10;;
22774;SDS011;11554;51.106;3.684;2023-04-01T18:35:15;14.80;;;5.70;;
22774;SDS011;11554;51.106;3.684;2023-04-01T18:40:12;14.80;;;5.70;;
22774;SDS011;11554;51.106;3.684;2023-04-01T18:45:10;15.40;;;6.10;;
22774;SDS011;11554;51.106;3.684;2023-04-01T18:50:10;15.40;;;6.10;;
22774;SDS011;11554;51.106;3.684;2023-04-01T18:55:18;14.10;;;5.70;;
22774;SDS011;11554;51.106;3.684;2023-04-01T19:00:05;14.10;;;5.70;;
22774;SDS011;11554;51.106;3.684;2023-04-01T19:05:04;14.10;;;5.70;;
22774;SDS011;11554;51.106;3.684;2023-04-01T19:10:07;12.90;;;4.50;;
22774;SDS011;11554;51.106;3.684;2023-04-01T19:15:11;11.50;;;3.50;;
22774;SDS011;11554;51.106;3.684;2023-04-01T19:20:08;11.50;;;3.50;;
22774;SDS011;11554;51.106;3.684;2023-04-01T19:25:12;15.20;;;4.00;;
22774;SDS011;11554;51.106;3.684;2023-04-01T19:30:15;15.20;;;4.00;;
22774;SDS011;11554;51.106;3.684;2023-04-01T19:35:12;17.90;;;4.50;;
22774;SDS011;11554;51.106;3.684;2023-04-01T19:40:13;17.90;;;4.50;;
22774;SDS011;11554;51.106;3.684;2023-04-01T19:45:08;16.60;;;3.80;;
22774;SDS011;11554;51.106;3.684;2023-04-01T19:50:08;16.60;;;3.80;;
22774;SDS011;11554;51.106;3.684;2023-04-01T19:55:07;18.70;;;4.70;;
22774;SDS011;11554;51.106;3.684;2023-04-01T20:00:06;18.70;;;4.70;;
22774;SDS011;11554;51.106;3.684;2023-04-01T20:05:04;20.80;;;5.10;;
22774;SDS011;11554;51.106;3.684;2023-04-01T20:10:06;20.80;;;5.10;;
22774;SDS011;11554;51.106;3.684;2023-04-01T20:15:02;17.50;;;4.90;;
22774;SDS011;11554;51.106;3.684;2023-04-01T20:20:03;17.50;;;4.90;;
22774;SDS011;11554;51.106;3.684;2023-04-01T20:25:06;18.20;;;6.00;;
22774;SDS011;11554;51.106;3.684;2023-04-01T20:30:17;18.20;;;6.00;;
22774;SDS011;11554;51.106;3.684;2023-04-01T20:35:15;19.70;;;6.40;;
22774;SDS011;11554;51.106;3.684;2023-04-01T20:45:14;25.70;;;6.90;;
22774;SDS011;11554;51.106;3.684;2023-04-01T20:50:06;25.70;;;6.90;;
22774;SDS011;11554;51.106;3.684;2023-04-01T21:00:16;22.80;;;8.10;;
22774;SDS011;11554;51.106;3.684;2023-04-01T21:05:19;25.50;;;8.30;;
22774;SDS011;11554;51.106;3.684;2023-04-01T21:10:13;25.50;;;8.30;;
22774;SDS011;11554;51.106;3.684;2023-04-01T21:15:14;27.10;;;9.20;;
22774;SDS011;11554;51.106;3.684;2023-04-01T21:20:14;27.10;;;9.20;;
22774;SDS011;11554;51.106;3.684;2023-04-01T21:30:11;30.90;;;9.80;;
22774;SDS011;11554;51.106;3.684;2023-04-01T21:35:05;28.60;;;9.60;;
22774;SDS011;11554;51.106;3.684;2023-04-01T21:40:17;28.60;;;9.60;;
22774;SDS011;11554;51.106;3.684;2023-04-01T21:45:14;18.90;;;7.60;;
22774;SDS011;11554;51.106;3.684;2023-04-01T21:50:14;18.90;;;7.60;;
22774;SDS011;11554;51.106;3.684;2023-04-01T21:55:17;30.40;;;9.20;;
22774;SDS011;11554;51.106;3.684;2023-04-01T22:00:09;30.40;;;9.20;;
22774;SDS011;11554;51.106;3.684;2023-04-01T22:05:07;30.30;;;10.00;;
22774;SDS011;11554;51.106;3.684;2023-04-01T22:10:05;30.30;;;10.00;;
22774;SDS011;11554;51.106;3.684;2023-04-01T22:15:08;31.00;;;9.90;;
22774;SDS011;11554;51.106;3.684;2023-04-01T22:20:14;31.00;;;9.90;;
22774;SDS011;11554;51.106;3.684;2023-04-01T22:25:05;32.50;;;10.60;;
22774;SDS011;11554;51.106;3.684;2023-04-01T22:30:09;32.50;;;10.60;;
22774;SDS011;11554;51.106;3.684;2023-04-01T22:35:07;26.30;;;9.70;;
22774;SDS011;11554;51.106;3.684;2023-04-01T22:40:14;26.30;;;9.70;;
22774;SDS011;11554;51.106;3.684;2023-04-01T22:45:10;30.50;;;12.10;;
22774;SDS011;11554;51.106;3.684;2023-04-01T22:50:08;30.50;;;12.10;;
22774;SDS011;11554;51.106;3.684;2023-04-01T22:55:05;26.20;;;11.10;;
22774;SDS011;11554;51.106;3.684;2023-04-01T23:00:05;26.20;;;11.10;;
22774;SDS011;11554;51.106;3.684;2023-04-01T23:05:03;26.00;;;11.80;;
22774;SDS011;11554;51.106;3.684;2023-04-01T23:10:02;26.00;;;11.80;;
22774;SDS011;11554;51.106;3.684;2023-04-01T23:15:01;26.10;;;11.90;;
22774;SDS011;11554;51.106;3.684;2023-04-01T23:20:07;26.10;;;11.90;;
22774;SDS011;11554;51.106;3.684;2023-04-01T23:25:12;25.70;;;12.20;;
22774;SDS011;11554;51.106;3.684;2023-04-01T23:30:00;25.70;;;12.20;;
22774;SDS011;11554;51.106;3.684;2023-04-01T23:35:00;29.30;;;17.80;;
22774;SDS011;11554;51.106;3.684;2023-04-01T23:40:00;29.30;;;17.80;;
22774;SDS011;11554;51.106;3.684;2023-04-01T23:45:03;26.10;;;17.40;;
22774;SDS011;11554;51.106;3.684;2023-04-01T23:50:03;26.10;;;17.40;;
22774;SDS011;11554;51.106;3.684;2023-04-01T23:55:08;27.70;;;18.00;;
